Murphy, NC (28906)

1:29 PM EST on February 10, 2016 (GMT -0500)
NOTTELY RIVER VALLEY VINEYARDS | | Change Station
CLOSE
Current Station
Personal Weather Station
Location: Murphy, NC
Elevation: 1720 ft
Nearby Weather Stations
Active Advisory: Winter Weather Advisory Active Notice: Local Storm Report

Elev 1720 ft 34.99 °N, 84.12 °W | Updated 8 seconds ago

Overcast
Overcast
24.7 °F
Feels Like 15 °F
N
9.0
Wind Variable Wind from WNW
Gusts 11.0 mph

Today
High -- | Low -- °F
--% Chance of Precip.
Yesterday
High -- | Low -- °F
Precip. -- in
Pressure 30.04 in
Visibility 10.0 miles
Clouds Overcast 3900 ft
Windchill 15 °F
Dew Point 15 °F
Humidity 65%
Rainfall 0.00 in
Snow Depth Not available.
7:28 AM 6:13 PM
Waxing Crescent, 6% visible
METAR KRHP 101815Z AUTO 29012G19KT 250V310 10SM OVC039 M04/M12 A3004 RMK AO2 T10391119
Pressure 30.04 in
Visibility 10.0 miles
Clouds Overcast 3900 ft
Windchill 15 °F
Dew Point 15 °F
Humidity 65%
Rainfall 0.00 in
Snow Depth Not available.
7:28 AM 6:13 PM
Waxing Crescent, 6% visible
METAR KRHP 101815Z AUTO 29012G19KT 250V310 10SM OVC039 M04/M12 A3004 RMK AO2 T10391119

10-Day Weather Forecast

Almanac

Astronomy

Feb. 10, 2016 Rise Set
Actual Time
Civil Twilight
Nautical Twilight
Astronomical Twilight
Moon
Length of Visible Light
Length of Day
Tomorrow will be .
, % of the Moon is Illuminated

Today's Extremes

State Highs State Lows

Community

WunderPhotos

Upload Photos

1,891,907 photos uploaded!

WunderBlog® & News

Nearby

Air Quality

  Air Quality AQ Index Pollutant
Not available.

Snow Depth

Station Depth Elevation

Earthquake Activity

City Distance Mag. Time & Date
Minimum magnitude displayed is 2.5.

Coastal Water Temperatures

Place Temperature

Stations

Nearby Weather Stations

Station Location Temp. Windchill Dew Point Humidity Wind Precip. Elev Updated Type
                   

Watches & Warnings

Winter Weather Advisory
Issued: 11:01 AM EST Feb. 10, 2016 – National Weather Service

... Winter Weather Advisory remains in effect until 7 PM EST this
evening...

* event... most locations will only see a dusting of additional
snowfall.

* Timing... snow showers diminishing this morning with flurries
this afternoon.

* Impacts... the snow could cause hazardous driving conditions...
especially on secondary roads.

Precautionary/preparedness actions...

A Winter Weather Advisory for snow means that periods of snow are
expected or occurring... but accumulations are expected to be
light. Driving and walking may be difficult on untreated roadways
and sidewalks. Be prepared for snow covered roads and limited
visibilities. If you must travel... slow down and allow extra time
to reach your destination.